createdAt,value
2023-03-11T00:00:31.834Z,983.66
2023-03-11T00:01:31.836Z,983.66
2023-03-11T00:02:31.828Z,983.70
2023-03-11T00:03:31.801Z,983.73
2023-03-11T00:04:31.823Z,983.71
2023-03-11T00:05:31.825Z,983.75
2023-03-11T00:06:31.799Z,983.76
2023-03-11T00:07:31.789Z,983.76
2023-03-11T00:08:31.784Z,983.78
2023-03-11T00:09:31.787Z,983.80
2023-03-11T00:10:31.785Z,983.85
2023-03-11T00:11:31.766Z,983.87
2023-03-11T00:12:31.776Z,983.93
2023-03-11T00:13:31.761Z,983.97
2023-03-11T00:14:31.769Z,984.03
2023-03-11T00:15:31.775Z,984.07
2023-03-11T00:16:31.779Z,984.11
2023-03-11T00:17:31.747Z,984.21
2023-03-11T00:18:31.939Z,984.19
2023-03-11T00:19:31.734Z,984.23
2023-03-11T00:20:31.767Z,984.29
2023-03-11T00:21:31.729Z,984.32
2023-03-11T00:22:31.720Z,984.39
2023-03-11T00:23:31.715Z,984.43
2023-03-11T00:24:31.718Z,984.50
2023-03-11T00:25:31.712Z,984.54
2023-03-11T00:26:31.711Z,984.60
2023-03-11T00:27:31.695Z,984.61
2023-03-11T00:28:34.135Z,984.67
2023-03-11T00:29:31.693Z,984.72
2023-03-11T00:30:31.809Z,984.73
2023-03-11T00:31:31.678Z,984.79
2023-03-11T00:32:31.758Z,984.81
2023-03-11T00:33:31.669Z,984.82
2023-03-11T00:34:31.670Z,984.84
2023-03-11T00:35:31.738Z,984.88
2023-03-11T00:36:31.732Z,984.90
2023-03-11T00:37:31.650Z,984.88
2023-03-11T00:38:31.679Z,984.95
2023-03-11T00:39:31.655Z,984.95
2023-03-11T00:40:31.639Z,984.97
2023-03-11T00:41:31.637Z,984.99
2023-03-11T00:42:31.635Z,985.05
2023-03-11T00:43:31.639Z,985.09
2023-03-11T00:44:31.618Z,985.07
2023-03-11T00:45:31.610Z,985.10
2023-03-11T00:46:31.676Z,985.17
2023-03-11T00:47:31.606Z,985.18
2023-03-11T00:48:31.601Z,985.17
2023-03-11T00:49:31.592Z,985.23
2023-03-11T00:50:31.615Z,985.24
2023-03-11T00:51:33.834Z,985.22
2023-03-11T00:52:31.626Z,985.23
2023-03-11T00:53:31.576Z,985.24
2023-03-11T00:54:31.569Z,985.25
2023-03-11T00:55:31.606Z,985.27
2023-03-11T00:56:31.563Z,985.28
2023-03-11T00:57:31.551Z,985.27
2023-03-11T00:58:31.549Z,985.28
2023-03-11T00:59:31.544Z,985.34
2023-03-11T01:00:31.544Z,985.33
2023-03-11T01:01:31.588Z,985.34
2023-03-11T01:02:31.535Z,985.39
2023-03-11T01:03:31.525Z,985.45
2023-03-11T01:04:31.557Z,985.40
2023-03-11T01:05:31.516Z,985.45
2023-03-11T01:06:43.136Z,985.50
2023-03-11T01:07:31.506Z,985.50
2023-03-11T01:08:31.553Z,985.57
2023-03-11T01:09:31.504Z,985.56
2023-03-11T01:10:31.497Z,985.60
2023-03-11T01:11:31.486Z,985.61
2023-03-11T01:12:31.483Z,985.66
2023-03-11T01:13:31.477Z,985.69
2023-03-11T01:14:31.473Z,985.64
2023-03-11T01:15:31.575Z,985.74
2023-03-11T01:16:31.469Z,985.76
2023-03-11T01:17:31.461Z,985.69
2023-03-11T01:18:31.456Z,985.79
2023-03-11T01:19:31.446Z,985.78
2023-03-11T01:20:31.457Z,985.83
2023-03-11T01:21:31.438Z,985.86
2023-03-11T01:22:31.440Z,985.85
2023-03-11T01:25:46.621Z,986.00
2023-03-11T01:27:34.154Z,986.04
2023-03-11T01:28:34.143Z,986.09
2023-03-11T01:29:34.136Z,986.18
2023-03-11T01:30:34.133Z,986.17
2023-03-11T01:31:34.132Z,986.16
2023-03-11T01:32:34.147Z,986.23
2023-03-11T01:33:34.115Z,986.23
2023-03-11T01:34:34.117Z,986.24
2023-03-11T01:35:34.152Z,986.28
2023-03-11T01:36:34.113Z,986.30
2023-03-11T01:37:34.095Z,986.35
2023-03-11T01:38:34.115Z,986.40
2023-03-11T01:42:09.964Z,986.49
2023-03-11T01:43:09.943Z,986.51
2023-03-11T01:44:09.926Z,986.50
2023-03-11T01:45:09.928Z,986.54
2023-03-11T01:46:09.966Z,986.52
2023-03-11T01:47:52.455Z,986.62
2023-03-11T01:48:52.471Z,986.60
2023-03-11T01:49:52.450Z,986.64
2023-03-11T01:50:52.448Z,986.69
2023-03-11T01:51:52.439Z,986.73
2023-03-11T01:52:52.429Z,986.67
2023-03-11T01:53:52.421Z,986.78
2023-03-11T01:54:52.424Z,986.82
2023-03-11T01:55:52.412Z,986.84
2023-03-11T01:56:52.414Z,986.89
2023-03-11T01:57:52.454Z,986.94
2023-03-11T01:58:52.404Z,986.96
2023-03-11T01:59:52.402Z,987.00
2023-03-11T02:00:52.389Z,987.08
2023-03-11T02:01:52.447Z,987.12
2023-03-11T02:02:52.453Z,987.12
2023-03-11T02:03:52.373Z,987.09
2023-03-11T02:04:52.368Z,987.21
2023-03-11T02:05:52.362Z,987.23
2023-03-11T02:06:54.092Z,987.25
2023-03-11T02:07:52.349Z,987.25
2023-03-11T02:08:52.348Z,987.28
2023-03-11T02:09:52.341Z,987.32
2023-03-11T02:10:52.346Z,987.35
2023-03-11T02:11:52.332Z,987.33
2023-03-11T02:12:52.331Z,987.43
2023-03-11T02:13:52.352Z,987.42
2023-03-11T02:14:52.318Z,987.49
2023-03-11T02:15:52.360Z,987.52
2023-03-11T02:16:52.318Z,987.53
2023-03-11T02:17:52.337Z,987.65
2023-03-11T02:18:52.310Z,987.66
2023-03-11T02:19:52.290Z,987.62
2023-03-11T02:20:52.294Z,987.71
2023-03-11T02:21:52.281Z,987.73
2023-03-11T02:22:52.279Z,987.75
2023-03-11T02:23:52.283Z,987.77
2023-03-11T02:24:52.270Z,987.81
2023-03-11T02:25:52.269Z,987.85
2023-03-11T02:26:52.266Z,987.91
2023-03-11T02:27:52.258Z,987.97
2023-03-11T02:28:52.249Z,987.99
2023-03-11T02:29:52.271Z,988.04
2023-03-11T02:30:52.257Z,988.08
2023-03-11T02:31:52.365Z,988.15
2023-03-11T02:32:52.294Z,988.12
2023-03-11T02:33:52.222Z,988.18
2023-03-11T02:34:52.219Z,988.25
2023-03-11T02:35:52.266Z,988.24
2023-03-11T02:36:52.207Z,988.27
2023-03-11T02:37:52.216Z,988.25
2023-03-11T02:38:52.199Z,988.32
2023-03-11T02:39:52.203Z,988.43
2023-03-11T02:40:52.189Z,988.40
2023-03-11T02:41:52.178Z,988.48
2023-03-11T02:42:52.176Z,988.47
2023-03-11T02:43:52.172Z,988.55
2023-03-11T02:44:52.165Z,988.56
2023-03-11T02:45:52.183Z,988.63
2023-03-11T02:46:52.193Z,988.71
2023-03-11T02:47:52.142Z,988.73
2023-03-11T02:48:52.143Z,988.78
2023-03-11T02:49:52.135Z,988.81
2023-03-11T02:50:52.142Z,988.83
2023-03-11T02:51:52.125Z,988.89
2023-03-11T02:52:52.122Z,988.98
2023-03-11T02:53:52.113Z,988.96
2023-03-11T02:54:52.106Z,989.00
2023-03-11T02:55:52.097Z,989.05
2023-03-11T02:56:52.096Z,989.16
2023-03-11T02:57:52.083Z,989.17
2023-03-11T02:58:52.085Z,989.22
2023-03-11T02:59:52.073Z,989.26
2023-03-11T03:00:52.106Z,989.27
2023-03-11T03:01:52.086Z,989.27
2023-03-11T03:02:52.061Z,989.29
2023-03-11T03:03:52.129Z,989.34
2023-03-11T03:04:52.051Z,989.41
2023-03-11T03:05:52.045Z,989.44
2023-03-11T03:06:52.045Z,989.43
2023-03-11T03:07:52.033Z,989.50
2023-03-11T03:08:52.047Z,989.52
2023-03-11T03:09:52.022Z,989.55
2023-03-11T03:10:52.016Z,989.54
2023-03-11T03:11:52.010Z,989.65
2023-03-11T03:12:52.046Z,989.68
2023-03-11T03:13:51.998Z,989.74
2023-03-11T03:14:51.993Z,989.77
2023-03-11T03:15:51.985Z,989.81
2023-03-11T03:16:52.157Z,989.79
2023-03-11T03:17:51.996Z,989.86
2023-03-11T03:18:51.973Z,989.91
2023-03-11T03:19:51.970Z,989.89
2023-03-11T03:20:51.967Z,989.91
2023-03-11T03:21:51.952Z,989.96
2023-03-11T03:22:51.956Z,989.99
2023-03-11T03:23:51.951Z,989.99
2023-03-11T03:24:51.941Z,990.05
2023-03-11T03:25:51.931Z,990.09
2023-03-11T03:26:51.926Z,990.12
2023-03-11T03:27:51.919Z,990.11
2023-03-11T03:28:51.922Z,990.14
2023-03-11T03:29:51.909Z,990.25
2023-03-11T03:30:51.908Z,990.27
2023-03-11T03:31:51.920Z,990.28
2023-03-11T03:32:51.919Z,990.33
2023-03-11T03:33:51.908Z,990.44
2023-03-11T03:34:51.888Z,990.46
2023-03-11T03:35:51.886Z,990.50
2023-03-11T03:36:51.875Z,990.53
2023-03-11T03:37:51.867Z,990.57
2023-03-11T03:38:51.862Z,990.62
2023-03-11T03:39:51.851Z,990.65
2023-03-11T03:40:51.852Z,990.70
2023-03-11T03:41:51.844Z,990.77
2023-03-11T03:42:51.845Z,990.76
2023-03-11T03:43:51.831Z,990.85
2023-03-11T03:44:51.831Z,990.86
2023-03-11T03:45:51.869Z,990.85
2023-03-11T03:46:51.819Z,990.95
2023-03-11T03:47:51.821Z,990.99
2023-03-11T03:48:51.812Z,990.98
2023-03-11T03:49:51.828Z,991.05
2023-03-11T03:50:51.800Z,991.00
2023-03-11T03:51:51.785Z,991.10
2023-03-11T03:52:51.789Z,991.13
2023-03-11T03:53:51.782Z,991.13
2023-03-11T03:54:51.783Z,991.18
2023-03-11T03:55:51.770Z,991.25
2023-03-11T03:56:51.764Z,991.27
2023-03-11T03:57:51.754Z,991.33
2023-03-11T03:58:51.752Z,991.37
2023-03-11T03:59:51.747Z,991.42
2023-03-11T04:00:51.749Z,991.42
2023-03-11T04:01:51.764Z,991.47
2023-03-11T04:02:51.741Z,991.59
2023-03-11T04:03:51.733Z,991.58
2023-03-11T04:04:51.728Z,991.60
2023-03-11T04:05:51.736Z,991.61
2023-03-11T04:06:51.732Z,991.64
2023-03-11T04:07:51.722Z,991.69
2023-03-11T04:08:51.703Z,991.71
2023-03-11T04:09:51.691Z,991.78
2023-03-11T04:10:51.696Z,991.83
2023-03-11T04:11:51.681Z,991.86
2023-03-11T04:12:51.692Z,991.86
2023-03-11T04:13:51.672Z,991.96
2023-03-11T04:14:51.666Z,991.95
2023-03-11T04:15:51.663Z,991.95
2023-03-11T04:16:51.732Z,991.99
2023-03-11T04:17:51.677Z,992.03
2023-03-11T04:18:51.656Z,992.02
2023-03-11T04:19:51.645Z,992.09
2023-03-11T04:20:51.645Z,992.11
2023-03-11T04:21:51.648Z,992.10
2023-03-11T04:22:51.621Z,992.13
2023-03-11T04:23:51.619Z,992.17
2023-03-11T04:24:51.622Z,992.25
2023-03-11T04:25:51.612Z,992.26
2023-03-11T04:26:51.601Z,992.27
2023-03-11T04:27:51.592Z,992.30
2023-03-11T04:28:51.592Z,992.30
2023-03-11T04:29:51.583Z,992.28
2023-03-11T04:30:51.643Z,992.38
2023-03-11T04:31:51.566Z,992.39
2023-03-11T04:32:51.599Z,992.51
2023-03-11T04:33:51.559Z,992.48
2023-03-11T04:34:51.564Z,992.47
2023-03-11T04:35:51.613Z,992.51
2023-03-11T04:36:51.543Z,992.54
2023-03-11T04:37:51.557Z,992.56
2023-03-11T04:38:51.543Z,992.54
2023-03-11T04:39:51.521Z,992.62
2023-03-11T04:40:51.524Z,992.65
2023-03-11T04:41:51.510Z,992.74
2023-03-11T04:42:51.509Z,992.70
2023-03-11T04:43:51.501Z,992.74
2023-03-11T04:44:51.502Z,992.77
2023-03-11T04:45:51.560Z,992.75
2023-03-11T04:46:51.477Z,992.86
2023-03-11T04:47:51.477Z,992.91
2023-03-11T04:48:51.472Z,992.93
2023-03-11T04:49:51.468Z,992.96
2023-03-11T04:50:51.459Z,992.98
2023-03-11T04:51:51.451Z,992.98
2023-03-11T04:52:51.448Z,992.98
2023-03-11T04:53:51.460Z,992.99
2023-03-11T04:54:51.437Z,992.99
2023-03-11T04:55:51.425Z,993.03
2023-03-11T04:56:51.426Z,993.09
2023-03-11T04:57:51.421Z,993.15
2023-03-11T04:58:51.412Z,993.12
2023-03-11T04:59:51.403Z,993.20
2023-03-11T05:00:51.399Z,993.20
2023-03-11T05:01:51.420Z,993.15
2023-03-11T05:02:51.473Z,993.22
2023-03-11T05:03:51.381Z,993.26
2023-03-11T05:04:51.440Z,993.28
2023-03-11T05:05:51.379Z,993.36
2023-03-11T05:06:51.383Z,993.35
2023-03-11T05:07:51.405Z,993.35
2023-03-11T05:08:51.356Z,993.35
2023-03-11T05:09:51.370Z,993.42
2023-03-11T05:10:51.345Z,993.41
2023-03-11T05:11:51.340Z,993.51
2023-03-11T05:12:51.340Z,993.47
2023-03-11T05:13:51.324Z,993.47
2023-03-11T05:14:51.328Z,993.57
2023-03-11T05:15:51.428Z,993.55
2023-03-11T05:16:51.312Z,993.64
2023-03-11T05:17:51.309Z,993.65
2023-03-11T05:18:51.317Z,993.65
2023-03-11T05:19:51.287Z,993.67
2023-03-11T05:20:51.290Z,993.75
2023-03-11T05:21:51.279Z,993.74
2023-03-11T05:22:51.281Z,993.83
2023-03-11T05:23:51.268Z,993.86
2023-03-11T05:24:51.268Z,993.90
2023-03-11T05:25:51.282Z,993.92
2023-03-11T05:26:51.259Z,993.93
2023-03-11T05:27:51.250Z,993.98
2023-03-11T05:28:51.246Z,994.07
2023-03-11T05:29:51.243Z,994.08
2023-03-11T05:30:51.265Z,994.10
2023-03-11T05:31:51.223Z,994.19
2023-03-11T05:32:51.299Z,994.13
2023-03-11T05:33:51.215Z,994.14
2023-03-11T05:34:51.210Z,994.22
2023-03-11T05:35:51.221Z,994.27
2023-03-11T05:36:51.202Z,994.25
2023-03-11T05:37:51.197Z,994.31
2023-03-11T05:38:51.191Z,994.37
2023-03-11T05:39:51.184Z,994.35
2023-03-11T05:40:51.199Z,994.38
2023-03-11T05:41:51.219Z,994.42
2023-03-11T05:42:51.179Z,994.40
2023-03-11T05:43:51.160Z,994.48
2023-03-11T05:44:51.158Z,994.49
2023-03-11T05:45:51.150Z,994.53
2023-03-11T05:46:51.214Z,994.53
2023-03-11T05:47:51.139Z,994.50
2023-03-11T05:48:51.143Z,994.58
2023-03-11T05:49:51.135Z,994.54
2023-03-11T05:50:51.125Z,994.65
2023-03-11T05:51:51.117Z,994.69
2023-03-11T05:52:51.119Z,994.65
2023-03-11T05:53:51.108Z,994.68
2023-03-11T05:54:51.112Z,994.75
2023-03-11T05:55:51.094Z,994.77
2023-03-11T05:56:51.092Z,994.77
2023-03-11T05:57:51.172Z,994.84
2023-03-11T05:58:51.078Z,994.89
2023-03-11T05:59:51.071Z,994.93
2023-03-11T06:00:51.065Z,994.92
2023-03-11T06:01:51.058Z,994.94
2023-03-11T06:02:51.054Z,995.01
2023-03-11T06:03:51.146Z,995.02
2023-03-11T06:04:51.176Z,995.08
2023-03-11T06:05:51.040Z,995.06
2023-03-11T06:06:51.025Z,995.14
2023-03-11T06:07:51.030Z,995.12
2023-03-11T06:08:51.024Z,995.11
2023-03-11T06:09:51.032Z,995.12
2023-03-11T06:10:51.010Z,995.19
2023-03-11T06:11:51.003Z,995.20
2023-03-11T06:12:51.001Z,995.19
2023-03-11T06:13:51.015Z,995.20
2023-03-11T06:14:50.983Z,995.26
2023-03-11T06:15:51.081Z,995.29
2023-03-11T06:16:50.978Z,995.31
2023-03-11T06:17:50.979Z,995.32
2023-03-11T06:18:50.963Z,995.40
2023-03-11T06:19:50.963Z,995.42
2023-03-11T06:20:50.952Z,995.41
2023-03-11T06:21:50.951Z,995.45
2023-03-11T06:22:50.941Z,995.45
2023-03-11T06:23:50.940Z,995.46
2023-03-11T06:24:50.928Z,995.52
2023-03-11T06:25:50.925Z,995.53
2023-03-11T06:26:50.916Z,995.55
2023-03-11T06:27:50.912Z,995.59
2023-03-11T06:28:50.908Z,995.56
2023-03-11T06:29:50.942Z,995.65
2023-03-11T06:30:50.893Z,995.64
2023-03-11T06:31:50.971Z,995.67
2023-03-11T06:32:50.961Z,995.66
2023-03-11T06:33:50.881Z,995.70
2023-03-11T06:34:50.875Z,995.77
2023-03-11T06:35:50.885Z,995.77
2023-03-11T06:36:50.868Z,995.84
2023-03-11T06:37:50.869Z,995.87
2023-03-11T06:38:50.858Z,995.91
2023-03-11T06:39:50.862Z,995.90
2023-03-11T06:40:50.838Z,995.98
2023-03-11T06:41:50.861Z,995.96
2023-03-11T06:42:50.827Z,995.96
2023-03-11T06:43:50.837Z,995.95
2023-03-11T06:44:50.823Z,995.96
2023-03-11T06:45:50.904Z,995.97
2023-03-11T06:46:50.817Z,996.01
2023-03-11T06:47:50.805Z,996.01
2023-03-11T06:48:50.796Z,996.04
2023-03-11T06:49:50.800Z,996.09
2023-03-11T06:50:50.813Z,996.09
2023-03-11T06:51:50.788Z,996.13
2023-03-11T06:52:50.782Z,996.18
2023-03-11T06:53:50.781Z,996.20
2023-03-11T06:54:50.773Z,996.27
2023-03-11T06:55:50.761Z,996.28
2023-03-11T06:56:50.754Z,996.28
2023-03-11T06:57:50.753Z,996.31
2023-03-11T06:58:50.746Z,996.24
2023-03-11T06:59:50.740Z,996.35
2023-03-11T07:00:50.774Z,996.40
2023-03-11T07:01:50.761Z,996.36
2023-03-11T07:02:50.732Z,996.39
2023-03-11T07:03:50.736Z,996.48
2023-03-11T07:04:50.754Z,996.54
2023-03-11T07:05:50.712Z,996.55
2023-03-11T07:06:50.699Z,996.56
2023-03-11T07:07:50.698Z,996.60
2023-03-11T07:08:50.692Z,996.69
2023-03-11T07:09:50.688Z,996.71
2023-03-11T07:10:50.680Z,996.67
2023-03-11T07:11:50.678Z,996.71
2023-03-11T07:12:50.670Z,996.68
2023-03-11T07:13:50.669Z,996.71
2023-03-11T07:14:50.656Z,996.74
2023-03-11T07:15:50.657Z,996.75
2023-03-11T07:16:50.720Z,996.70
2023-03-11T07:17:50.722Z,996.76
2023-03-11T07:18:50.674Z,996.76
2023-03-11T07:19:50.634Z,996.79
2023-03-11T07:20:50.632Z,996.83
2023-03-11T07:21:50.630Z,996.89
2023-03-11T07:22:50.627Z,996.89
2023-03-11T07:23:50.626Z,996.89
2023-03-11T07:24:50.612Z,996.91
2023-03-11T07:25:50.606Z,996.97
2023-03-11T07:26:50.597Z,997.05
2023-03-11T07:27:50.600Z,996.99
2023-03-11T07:28:50.592Z,997.05
2023-03-11T07:29:50.584Z,997.08
2023-03-11T07:30:50.582Z,997.09
2023-03-11T07:31:50.593Z,997.18
2023-03-11T07:32:50.598Z,997.10
2023-03-11T07:33:50.603Z,997.23
2023-03-11T07:34:50.552Z,997.33
2023-03-11T07:35:50.567Z,997.28
2023-03-11T07:36:50.547Z,997.31
2023-03-11T07:37:50.541Z,997.32
2023-03-11T07:38:50.533Z,997.44
2023-03-11T07:39:50.545Z,997.50
2023-03-11T07:40:50.532Z,997.47
2023-03-11T07:41:50.517Z,997.50
2023-03-11T07:42:50.510Z,997.54
2023-03-11T07:43:50.512Z,997.58
2023-03-11T07:44:50.505Z,997.57
2023-03-11T07:45:50.518Z,997.61
2023-03-11T07:46:50.504Z,997.71
2023-03-11T07:47:50.488Z,997.72
2023-03-11T07:48:50.508Z,997.81
2023-03-11T07:49:50.512Z,997.80
2023-03-11T07:50:50.469Z,997.85
2023-03-11T07:51:50.468Z,997.89
2023-03-11T07:52:50.455Z,997.95
2023-03-11T07:53:50.454Z,998.12
2023-03-11T07:54:50.448Z,998.12
2023-03-11T07:55:50.443Z,998.11
2023-03-11T07:56:50.437Z,998.12
2023-03-11T07:57:50.439Z,998.09
2023-03-11T07:58:50.423Z,998.09
2023-03-11T07:59:50.424Z,998.29
2023-03-11T08:00:50.416Z,998.34
2023-03-11T08:01:50.420Z,998.63
2023-03-11T08:02:50.435Z,998.72
2023-03-11T08:03:50.458Z,998.79
2023-03-11T08:04:50.396Z,998.60
2023-03-11T08:05:50.426Z,998.71
2023-03-11T08:06:50.384Z,998.87
2023-03-11T08:07:50.381Z,998.43
2023-03-11T08:08:50.396Z,998.87
2023-03-11T08:09:50.385Z,998.75
2023-03-11T08:10:50.368Z,998.43
2023-03-11T08:11:50.373Z,998.57
2023-03-11T08:12:50.358Z,999.21
2023-03-11T08:13:50.356Z,998.67
2023-03-11T08:14:50.351Z,998.65
2023-03-11T08:15:50.368Z,998.62
2023-03-11T08:16:50.341Z,998.79
2023-03-11T08:17:50.341Z,998.66
2023-03-11T08:18:50.341Z,998.69
2023-03-11T08:19:50.334Z,999.50
2023-03-11T08:20:50.325Z,998.75
2023-03-11T08:21:50.355Z,998.83
2023-03-11T08:22:57.933Z,998.81
2023-03-11T08:23:50.319Z,998.86
2023-03-11T08:24:50.313Z,998.98
2023-03-11T08:25:50.312Z,998.97
2023-03-11T08:26:50.331Z,999.13
2023-03-11T08:27:50.321Z,998.87
2023-03-11T08:28:50.298Z,998.77
2023-03-11T08:29:50.303Z,999.25
2023-03-11T08:30:50.310Z,999.17
2023-03-11T08:31:50.292Z,999.64
2023-03-11T08:32:50.361Z,999.21
2023-03-11T08:33:50.308Z,999.23
2023-03-11T08:34:50.275Z,999.45
2023-03-11T08:35:50.399Z,999.42
2023-03-11T08:36:50.272Z,999.04
2023-03-11T08:37:50.297Z,999.15
2023-03-11T08:38:50.291Z,999.21
2023-03-11T08:39:50.265Z,1000.12
2023-03-11T08:40:50.314Z,1000.43
2023-03-11T08:41:50.258Z,1000.68
2023-03-11T08:42:50.258Z,1000.31
2023-03-11T08:43:50.252Z,999.41
2023-03-11T08:44:50.264Z,1000.31
2023-03-11T08:45:50.243Z,999.78
2023-03-11T08:46:50.338Z,1000.61
2023-03-11T08:47:50.258Z,999.52
2023-03-11T08:48:50.240Z,1000.91
2023-03-11T08:49:50.241Z,1001.10
2023-03-11T08:50:54.326Z,1000.59
2023-03-11T08:51:50.227Z,1001.15
2023-03-11T08:52:50.229Z,999.72
2023-03-11T08:53:50.245Z,999.61
2023-03-11T08:54:50.217Z,1000.89
2023-03-11T08:55:50.225Z,999.77
2023-03-11T08:56:50.212Z,999.80
2023-03-11T08:57:50.217Z,999.74
2023-03-11T08:58:50.204Z,1001.00
2023-03-11T08:59:50.210Z,1000.11
2023-03-11T09:00:50.205Z,999.99
2023-03-11T09:01:50.201Z,999.78
2023-03-11T09:02:50.273Z,999.65
2023-03-11T09:03:50.203Z,1001.32
2023-03-11T09:04:50.196Z,999.65
2023-03-11T09:05:50.218Z,999.69
2023-03-11T09:06:50.196Z,999.71
2023-03-11T09:07:50.194Z,999.67
2023-03-11T09:08:50.225Z,999.79
2023-03-11T09:09:50.218Z,1000.42
2023-03-11T09:10:50.194Z,999.94
2023-03-11T09:11:50.189Z,999.79
2023-03-11T09:12:50.187Z,999.69
2023-03-11T09:13:50.184Z,1000.00
2023-03-11T09:14:50.171Z,1000.25
2023-03-11T09:15:50.226Z,1000.15
2023-03-11T09:16:50.176Z,1000.22
2023-03-11T09:17:50.178Z,1000.20
2023-03-11T09:18:50.171Z,1000.23
2023-03-11T09:19:50.172Z,1000.36
2023-03-11T09:20:50.164Z,1000.22
2023-03-11T09:21:50.163Z,1000.15
2023-03-11T09:22:50.164Z,1000.23
2023-03-11T09:23:50.162Z,1000.12
2023-03-11T09:24:50.157Z,1000.07
2023-03-11T09:25:50.180Z,999.96
2023-03-11T09:26:50.150Z,1000.01
2023-03-11T09:27:50.157Z,1000.13
2023-03-11T09:28:50.208Z,1000.05
2023-03-11T09:29:50.149Z,1000.22
2023-03-11T09:30:50.145Z,1000.17
2023-03-11T09:31:50.194Z,1000.29
2023-03-11T09:32:50.171Z,1000.32
2023-03-11T09:33:50.145Z,1000.20
2023-03-11T09:34:50.133Z,1000.26
2023-03-11T09:35:50.171Z,1000.38
2023-03-11T09:36:50.128Z,1000.45
2023-03-11T09:37:50.130Z,1000.38
2023-03-11T09:38:50.132Z,1000.38
2023-03-11T09:39:50.125Z,1000.39
2023-03-11T09:40:50.126Z,1000.47
2023-03-11T09:41:57.942Z,1000.43
2023-03-11T09:42:50.120Z,1000.35
2023-03-11T09:43:50.121Z,1000.23
2023-03-11T09:44:50.116Z,1000.30
2023-03-11T09:45:50.117Z,1000.35
2023-03-11T09:46:50.216Z,1000.36
2023-03-11T09:47:50.114Z,1000.44
2023-03-11T09:48:50.115Z,1000.49
2023-03-11T09:49:50.105Z,1000.65
2023-03-11T09:50:50.098Z,1000.63
2023-03-11T09:51:50.097Z,1000.68
2023-03-11T09:52:50.099Z,1000.68
2023-03-11T09:53:50.094Z,1000.70
2023-03-11T09:54:50.094Z,1000.78
2023-03-11T09:55:50.087Z,1000.77
2023-03-11T09:56:50.086Z,1000.69
2023-03-11T09:57:50.109Z,1000.62
2023-03-11T09:58:50.084Z,1000.61
2023-03-11T09:59:50.079Z,1000.71
2023-03-11T10:00:50.077Z,1000.74
2023-03-11T10:01:50.107Z,1000.56
2023-03-11T10:02:50.217Z,1000.49
2023-03-11T10:03:50.071Z,1000.53
2023-03-11T10:04:50.063Z,1000.48
2023-03-11T10:05:50.065Z,1000.51
2023-03-11T10:06:50.060Z,1000.61
2023-03-11T10:07:50.088Z,1000.55
2023-03-11T10:08:50.058Z,1000.59
2023-03-11T10:09:50.058Z,1000.56
2023-03-11T10:10:50.053Z,1000.62
2023-03-11T10:11:50.068Z,1000.66
2023-03-11T10:12:50.051Z,1000.72
2023-03-11T10:13:50.075Z,1000.88
2023-03-11T10:14:50.042Z,1000.88
2023-03-11T10:15:50.047Z,1000.88
2023-03-11T10:16:50.039Z,1000.82
2023-03-11T10:17:50.044Z,1001.02
2023-03-11T10:18:50.042Z,1001.16
2023-03-11T10:19:50.040Z,1001.08
2023-03-11T10:20:50.035Z,1001.20
2023-03-11T10:21:50.031Z,1001.23
2023-03-11T10:22:50.030Z,1001.24
2023-03-11T10:23:50.021Z,1001.01
2023-03-11T10:24:50.021Z,1001.24
2023-03-11T10:25:50.030Z,1001.11
2023-03-11T10:26:50.020Z,1001.09
2023-03-11T10:27:50.013Z,1001.18
2023-03-11T10:28:50.020Z,1001.15
2023-03-11T10:29:50.041Z,1001.02
2023-03-11T10:30:50.019Z,1001.06
2023-03-11T10:31:50.057Z,1001.03
2023-03-11T10:32:50.120Z,1001.05
2023-03-11T10:33:50.002Z,1001.10
2023-03-11T10:34:50.007Z,1001.19
2023-03-11T10:35:50.026Z,1001.31
2023-03-11T10:36:49.995Z,1001.11
2023-03-11T10:37:50.287Z,1001.20
2023-03-11T10:38:50.000Z,1001.35
2023-03-11T10:39:49.987Z,1001.31
2023-03-11T10:40:50.039Z,1001.43
2023-03-11T10:41:49.982Z,1001.27
2023-03-11T10:42:49.982Z,1001.36
2023-03-11T10:43:49.975Z,1001.37
2023-03-11T10:44:52.450Z,1001.30
2023-03-11T10:45:50.057Z,1001.30
2023-03-11T10:46:49.975Z,1001.35
2023-03-11T10:47:49.967Z,1001.33
2023-03-11T10:48:49.970Z,1001.33
2023-03-11T10:49:49.964Z,1001.39
2023-03-11T10:50:50.119Z,1001.35
2023-03-11T10:51:49.966Z,1001.34
2023-03-11T10:52:49.964Z,1001.24
2023-03-11T10:53:49.953Z,1001.22
2023-03-11T10:54:49.961Z,1001.27
2023-03-11T10:55:49.950Z,1001.26
2023-03-11T10:56:49.949Z,1001.23
2023-03-11T10:57:49.948Z,1001.27
2023-03-11T10:58:49.957Z,1001.18
2023-03-11T10:59:49.942Z,1001.15
2023-03-11T11:00:50.127Z,1001.17
2023-03-11T11:01:49.968Z,1001.22
2023-03-11T11:02:49.938Z,1001.21
2023-03-11T11:03:50.068Z,1001.22
2023-03-11T11:04:49.955Z,1001.22
2023-03-11T11:05:49.928Z,1001.29
2023-03-11T11:06:49.924Z,1001.36
2023-03-11T11:07:49.927Z,1001.28
2023-03-11T11:08:49.923Z,1001.31
2023-03-11T11:09:49.925Z,1001.30
2023-03-11T11:10:49.921Z,1001.32
2023-03-11T11:11:49.920Z,1001.28
2023-03-11T11:12:49.918Z,1001.31
2023-03-11T11:13:49.908Z,1001.33
2023-03-11T11:14:49.915Z,1001.39
2023-03-11T11:15:49.904Z,1001.37
2023-03-11T11:16:50.010Z,1001.38
2023-03-11T11:17:49.929Z,1001.41
2023-03-11T11:18:49.906Z,1001.37
2023-03-11T11:19:49.915Z,1001.42
2023-03-11T11:20:49.908Z,1001.40
2023-03-11T11:21:49.891Z,1001.37
2023-03-11T11:22:49.893Z,1001.38
2023-03-11T11:23:49.887Z,1001.39
2023-03-11T11:24:49.949Z,1001.44
2023-03-11T11:25:49.878Z,1001.47
2023-03-11T11:26:49.877Z,1001.47
2023-03-11T11:27:49.879Z,1001.47
2023-03-11T11:28:49.870Z,1001.51
2023-03-11T11:29:49.864Z,1001.55
2023-03-11T11:30:49.935Z,1001.52
2023-03-11T11:31:49.865Z,1001.56
2023-03-11T11:32:49.902Z,1001.54
2023-03-11T11:33:49.878Z,1001.65
2023-03-11T11:34:49.871Z,1001.67
2023-03-11T11:35:49.901Z,1001.55
2023-03-11T11:36:49.852Z,1001.62
2023-03-11T11:37:49.843Z,1001.55
2023-03-11T11:38:49.839Z,1001.55
2023-03-11T11:39:49.837Z,1001.56
2023-03-11T11:40:49.838Z,1001.70
2023-03-11T11:41:49.828Z,1001.68
2023-03-11T11:42:49.833Z,1001.69
2023-03-11T11:43:49.830Z,1001.64
2023-03-11T11:44:49.827Z,1001.73
2023-03-11T11:45:49.869Z,1001.68
2023-03-11T11:46:49.810Z,1001.68
2023-03-11T11:47:49.806Z,1001.68
2023-03-11T11:48:49.808Z,1001.74
2023-03-11T11:49:49.836Z,1001.70
2023-03-11T11:50:49.805Z,1001.66
2023-03-11T11:51:49.795Z,1001.61
2023-03-11T11:52:49.792Z,1001.71
2023-03-11T11:53:49.800Z,1001.74
2023-03-11T11:54:49.798Z,1001.79
2023-03-11T11:55:49.783Z,1001.78
2023-03-11T11:56:49.784Z,1001.77
2023-03-11T11:57:49.781Z,1001.75
2023-03-11T11:58:49.778Z,1001.81
2023-03-11T11:59:49.771Z,1001.84
2023-03-11T12:00:49.777Z,1001.84
2023-03-11T12:01:49.768Z,1001.80
2023-03-11T12:02:49.765Z,1001.83
2023-03-11T12:03:49.813Z,1001.82
2023-03-11T12:04:49.760Z,1001.81
2023-03-11T12:05:49.883Z,1001.77
2023-03-11T12:06:49.759Z,1001.67
2023-03-11T12:07:49.765Z,1001.65
2023-03-11T12:08:49.751Z,1001.70
2023-03-11T12:09:49.746Z,1001.75
2023-03-11T12:10:49.745Z,1001.81
2023-03-11T12:11:49.739Z,1001.81
2023-03-11T12:12:49.747Z,1001.86
2023-03-11T12:13:49.735Z,1001.85
2023-03-11T12:14:49.739Z,1001.81
2023-03-11T12:15:49.799Z,1001.77
2023-03-11T12:16:49.734Z,1001.78
2023-03-11T12:17:49.724Z,1001.79
2023-03-11T12:18:49.731Z,1001.76
2023-03-11T12:19:49.722Z,1001.87
2023-03-11T12:20:49.725Z,1001.84
2023-03-11T12:21:49.732Z,1001.91
2023-03-11T12:22:49.719Z,1001.83
2023-03-11T12:23:49.707Z,1001.93
2023-03-11T12:24:49.716Z,1001.91
2023-03-11T12:25:49.703Z,1001.93
2023-03-11T12:26:49.709Z,1002.00
2023-03-11T12:27:49.703Z,1002.10